createdAt,value
2023-07-20T00:01:38.345Z,52.50
2023-07-20T00:04:40.482Z,52.70
2023-07-20T00:07:42.480Z,52.40
2023-07-20T00:10:44.614Z,53.00
2023-07-20T00:13:46.696Z,52.50
2023-07-20T00:16:49.031Z,52.00
2023-07-20T00:19:51.047Z,52.80
2023-07-20T00:22:53.138Z,52.40
2023-07-20T00:25:55.511Z,52.80
2023-07-20T00:28:57.522Z,52.60
2023-07-20T00:31:59.909Z,51.80
2023-07-20T00:35:01.953Z,53.00
2023-07-20T00:38:05.715Z,53.20
2023-07-20T00:41:07.989Z,53.80
2023-07-20T00:44:10.164Z,53.40
2023-07-20T00:47:12.478Z,53.40
2023-07-20T00:50:14.732Z,54.30
2023-07-20T00:53:17.079Z,55.60
2023-07-20T00:56:19.836Z,54.10
2023-07-20T00:59:22.896Z,55.20
2023-07-20T01:02:25.543Z,54.60
2023-07-20T01:05:45.010Z,55.60
2023-07-20T01:08:56.018Z,54.50
2023-07-20T01:12:13.812Z,56.00
2023-07-20T01:15:16.062Z,55.20
2023-07-20T01:18:18.084Z,55.50
2023-07-20T01:21:29.522Z,55.50
2023-07-20T01:24:37.463Z,55.90
2023-07-20T01:28:01.459Z,55.50
2023-07-20T01:31:12.485Z,54.50
2023-07-20T01:34:18.801Z,54.50
2023-07-20T01:37:22.874Z,55.70
2023-07-20T01:40:26.356Z,55.40
2023-07-20T01:43:30.770Z,55.90
2023-07-20T01:46:32.921Z,55.20
2023-07-20T01:49:35.028Z,56.10
2023-07-20T01:52:37.013Z,57.20
2023-07-20T01:55:39.412Z,57.70
2023-07-20T01:58:41.514Z,59.50
2023-07-20T02:01:44.134Z,58.90
2023-07-20T02:04:50.031Z,59.00
2023-07-20T02:07:52.116Z,58.80
2023-07-20T02:10:55.764Z,59.90
2023-07-20T02:13:57.768Z,59.60
2023-07-20T02:16:59.794Z,59.30
2023-07-20T02:20:04.393Z,59.00
2023-07-20T02:23:06.458Z,59.80
2023-07-20T02:26:08.545Z,60.70
2023-07-20T02:29:10.547Z,60.80
2023-07-20T02:32:12.629Z,61.00
2023-07-20T02:35:15.046Z,61.00
2023-07-20T02:38:17.028Z,61.40
2023-07-20T02:41:18.945Z,61.90
2023-07-20T02:44:21.556Z,62.90
2023-07-20T02:47:24.479Z,62.30
2023-07-20T02:50:26.422Z,63.50
2023-07-20T02:53:28.454Z,63.30
2023-07-20T02:56:30.635Z,62.50
2023-07-20T02:59:32.816Z,62.30
2023-07-20T03:02:34.812Z,63.40
2023-07-20T03:05:42.665Z,62.00
2023-07-20T03:08:45.101Z,61.20
2023-07-20T03:11:47.214Z,62.00
2023-07-20T03:14:49.352Z,61.70
2023-07-20T03:17:51.363Z,61.30
2023-07-20T03:20:53.861Z,61.10
2023-07-20T03:23:56.122Z,60.70
2023-07-20T03:26:59.274Z,61.80
2023-07-20T03:30:01.312Z,61.30
2023-07-20T03:33:04.376Z,60.60
2023-07-20T03:36:06.864Z,61.60
2023-07-20T03:39:09.161Z,61.40
2023-07-20T03:42:11.097Z,62.20
2023-07-20T03:45:13.109Z,62.20
2023-07-20T03:48:16.600Z,62.90
2023-07-20T03:51:18.632Z,62.60
2023-07-20T03:54:23.178Z,62.70
2023-07-20T03:57:25.185Z,62.60
2023-07-20T04:00:27.148Z,63.10
2023-07-20T04:03:29.251Z,62.60
2023-07-20T04:06:31.459Z,61.90
2023-07-20T04:09:33.731Z,63.40
2023-07-20T04:12:36.111Z,62.60
2023-07-20T04:15:38.287Z,62.70
2023-07-20T04:18:40.473Z,62.40
2023-07-20T04:21:42.584Z,62.00
2023-07-20T04:24:44.717Z,61.50
2023-07-20T04:27:47.137Z,62.90
2023-07-20T04:30:51.098Z,62.00
2023-07-20T04:33:53.630Z,60.30
2023-07-20T04:36:55.906Z,60.60
2023-07-20T04:39:59.361Z,60.20
2023-07-20T04:43:01.622Z,59.80
2023-07-20T04:46:03.757Z,60.80
2023-07-20T04:49:08.750Z,61.20
2023-07-20T04:52:14.546Z,62.40
2023-07-20T04:55:16.601Z,62.00
2023-07-20T04:58:19.630Z,62.60
2023-07-20T05:01:21.750Z,61.90
2023-07-20T05:04:23.945Z,62.20
2023-07-20T05:07:26.147Z,61.00
2023-07-20T05:10:28.343Z,61.50
2023-07-20T05:13:31.051Z,60.60
2023-07-20T05:16:33.123Z,60.00
2023-07-20T05:19:39.789Z,59.70
2023-07-20T05:22:44.053Z,60.20
2023-07-20T05:25:46.132Z,60.50
2023-07-20T05:28:48.268Z,61.10
2023-07-20T05:31:50.312Z,61.20
2023-07-20T05:34:55.497Z,61.00
2023-07-20T05:37:57.526Z,61.20
2023-07-20T05:41:01.639Z,61.10
2023-07-20T05:44:03.682Z,61.50
2023-07-20T05:47:05.981Z,60.20
2023-07-20T05:50:10.532Z,59.70
2023-07-20T05:53:12.611Z,58.60
2023-07-20T05:56:15.212Z,59.30
2023-07-20T05:59:17.309Z,59.50
2023-07-20T06:02:19.300Z,59.50
2023-07-20T06:05:21.383Z,58.90
2023-07-20T06:08:23.334Z,57.90
2023-07-20T06:11:25.436Z,57.80
2023-07-20T06:14:27.583Z,57.30
2023-07-20T06:17:29.654Z,56.70
2023-07-20T06:20:31.718Z,57.00
2023-07-20T06:23:33.736Z,58.00
2023-07-20T06:26:35.800Z,56.50
2023-07-20T06:29:37.797Z,53.60
2023-07-20T06:32:40.323Z,55.00
2023-07-20T06:35:45.508Z,55.20
2023-07-20T06:41:55.873Z,57.40
2023-07-20T06:44:58.716Z,57.60
2023-07-20T06:48:00.769Z,59.30
2023-07-20T06:51:02.888Z,56.80
2023-07-20T06:54:07.203Z,56.70
2023-07-20T07:00:14.798Z,57.80
2023-07-20T07:03:16.914Z,58.20
2023-07-20T07:06:19.103Z,55.60
2023-07-20T07:12:32.613Z,54.40
2023-07-20T07:15:35.197Z,51.70
2023-07-20T07:18:37.406Z,49.60
2023-07-20T07:21:39.690Z,48.00
2023-07-20T07:24:45.001Z,48.30
2023-07-20T07:27:47.139Z,49.10
2023-07-20T07:30:49.655Z,53.20
2023-07-20T07:33:51.766Z,51.80
2023-07-20T07:36:54.141Z,49.40
2023-07-20T07:40:00.594Z,46.80
2023-07-20T07:43:02.789Z,45.90
2023-07-20T07:46:04.972Z,44.60
2023-07-20T07:49:07.104Z,43.70
2023-07-20T07:52:09.236Z,44.00
2023-07-20T07:55:11.382Z,42.90
2023-07-20T07:58:13.548Z,42.80
2023-07-20T08:01:15.590Z,41.50
2023-07-20T08:04:17.736Z,41.60
2023-07-20T08:07:19.803Z,42.80
2023-07-20T08:10:23.437Z,43.00
2023-07-20T08:13:25.546Z,41.00
2023-07-20T08:16:28.280Z,44.00
2023-07-20T08:19:30.859Z,41.90
2023-07-20T08:22:33.030Z,42.90
2023-07-20T08:25:37.748Z,41.80
2023-07-20T08:28:40.055Z,39.50
2023-07-20T08:31:42.161Z,40.70
2023-07-20T08:34:44.284Z,41.60
2023-07-20T08:37:46.338Z,45.20
2023-07-20T08:40:48.913Z,43.50
2023-07-20T08:43:53.496Z,40.20
2023-07-20T08:46:56.476Z,39.40
2023-07-20T08:50:00.501Z,37.70
2023-07-20T08:53:03.274Z,37.90
2023-07-20T08:56:06.463Z,37.50
2023-07-20T08:59:10.038Z,39.10
2023-07-20T09:02:19.362Z,38.10
2023-07-20T09:05:24.687Z,39.40
2023-07-20T09:08:27.877Z,41.80
2023-07-20T09:11:30.094Z,40.10
2023-07-20T09:14:32.417Z,38.40
2023-07-20T09:17:34.791Z,37.80
2023-07-20T09:20:37.881Z,36.30
2023-07-20T09:23:40.218Z,38.20
2023-07-20T09:26:43.464Z,40.90
2023-07-20T09:29:52.795Z,40.80
2023-07-20T09:32:55.245Z,43.50
2023-07-20T09:36:15.020Z,43.70
2023-07-20T09:52:03.701Z,38.80
2023-07-20T09:55:07.542Z,43.20
2023-07-20T09:58:10.773Z,42.00
2023-07-20T10:01:14.469Z,38.90
2023-07-20T10:04:20.068Z,35.50
2023-07-20T10:07:25.159Z,36.60
2023-07-20T10:10:28.189Z,34.70
2023-07-20T10:13:31.487Z,34.70
2023-07-20T10:16:36.923Z,40.20
2023-07-20T10:19:51.906Z,42.00
2023-07-20T10:22:57.685Z,38.70
2023-07-20T10:26:02.993Z,36.00
2023-07-20T10:29:05.709Z,36.50
2023-07-20T10:32:09.440Z,37.30
2023-07-20T10:35:18.294Z,38.40
2023-07-20T10:38:20.593Z,41.10
2023-07-20T10:41:43.811Z,38.40
2023-07-20T10:44:46.116Z,36.90
2023-07-20T10:47:48.206Z,38.70
2023-07-20T11:03:31.058Z,39.20
2023-07-20T11:06:34.922Z,40.60
2023-07-20T11:09:39.355Z,39.90
2023-07-20T11:12:41.811Z,40.10
2023-07-20T11:16:03.442Z,40.60
2023-07-20T11:19:06.478Z,37.50
2023-07-20T11:22:09.084Z,37.60
2023-07-20T11:25:11.879Z,39.10
2023-07-20T11:28:14.095Z,40.70
2023-07-20T11:31:16.337Z,37.30
2023-07-20T11:34:20.818Z,37.80
2023-07-20T11:37:22.823Z,38.00
2023-07-20T11:40:27.344Z,38.10
2023-07-20T11:43:29.627Z,38.10
2023-07-20T11:46:31.742Z,41.20
2023-07-20T11:49:37.976Z,38.00
2023-07-20T11:52:40.089Z,35.80
2023-07-20T11:55:42.603Z,35.90
2023-07-20T11:58:47.643Z,34.80
2023-07-20T12:01:49.780Z,36.30
2023-07-20T12:04:52.546Z,34.40
2023-07-20T12:07:55.612Z,33.90
2023-07-20T12:10:57.590Z,35.60
2023-07-20T12:14:11.693Z,37.50
2023-07-20T12:17:18.198Z,33.50
2023-07-20T12:20:36.953Z,32.60
2023-07-20T12:23:43.933Z,34.50
2023-07-20T12:26:45.971Z,35.30
2023-07-20T12:29:48.003Z,33.70
2023-07-20T12:32:50.043Z,32.90
2023-07-20T12:35:54.682Z,34.30
2023-07-20T12:38:56.635Z,34.30
2023-07-20T12:41:58.650Z,35.40
2023-07-20T12:45:00.678Z,34.50
2023-07-20T12:48:02.770Z,33.70
2023-07-20T12:51:05.572Z,35.90
2023-07-20T12:54:07.595Z,36.50
2023-07-20T13:00:16.072Z,37.00
2023-07-20T13:09:30.239Z,34.50
2023-07-20T13:12:33.491Z,35.40
2023-07-20T13:15:43.647Z,33.70
2023-07-20T13:18:45.695Z,33.10
2023-07-20T13:21:49.949Z,34.70
2023-07-20T13:24:54.410Z,35.60
2023-07-20T13:27:56.595Z,35.00
2023-07-20T13:30:58.641Z,33.50
2023-07-20T13:34:01.262Z,34.70
2023-07-20T13:37:03.601Z,32.90
2023-07-20T13:40:07.624Z,32.40
2023-07-20T13:43:09.733Z,32.50
2023-07-20T13:46:16.830Z,32.80
2023-07-20T13:49:23.407Z,34.00
2023-07-20T13:58:35.818Z,31.40
2023-07-20T14:01:38.372Z,32.60
2023-07-20T14:04:41.149Z,32.50
2023-07-20T14:07:44.496Z,32.90
2023-07-20T14:13:52.283Z,33.60
2023-07-20T14:16:54.411Z,33.70
2023-07-20T14:19:56.438Z,34.10
2023-07-20T14:22:59.199Z,32.00
2023-07-20T14:26:01.346Z,32.20
2023-07-20T14:29:03.413Z,31.90
2023-07-20T14:32:05.740Z,32.60
2023-07-20T14:35:10.676Z,31.10
2023-07-20T14:38:13.129Z,32.90
2023-07-20T14:41:15.216Z,34.50
2023-07-20T14:44:17.264Z,31.80
2023-07-20T14:47:19.717Z,32.00
2023-07-20T14:50:22.778Z,32.50
2023-07-20T14:56:40.169Z,34.00
2023-07-20T14:59:42.167Z,32.30
2023-07-20T15:02:44.310Z,35.30
2023-07-20T15:05:46.363Z,34.90
2023-07-20T15:08:50.598Z,35.50
2023-07-20T15:11:52.596Z,33.50
2023-07-20T15:15:07.863Z,35.00
2023-07-20T15:18:10.115Z,35.40
2023-07-20T15:21:12.278Z,36.20
2023-07-20T15:24:14.417Z,32.30
2023-07-20T15:27:16.443Z,32.30
2023-07-20T15:33:27.064Z,32.60
2023-07-20T15:36:29.456Z,32.80
2023-07-20T15:39:31.427Z,32.30
2023-07-20T15:45:40.747Z,35.00
2023-07-20T15:48:43.367Z,34.10
2023-07-20T15:51:47.883Z,32.70
2023-07-20T15:54:50.081Z,34.30
2023-07-20T15:57:52.079Z,31.20
2023-07-20T16:00:57.476Z,34.60
2023-07-20T16:03:59.718Z,35.80
2023-07-20T16:07:01.786Z,36.70
2023-07-20T16:10:04.439Z,33.80
2023-07-20T16:13:08.932Z,31.90
2023-07-20T16:16:10.966Z,30.80
2023-07-20T16:19:13.057Z,34.30
2023-07-20T16:22:15.121Z,31.00
2023-07-20T16:25:17.312Z,31.70
2023-07-20T16:28:19.340Z,32.00
2023-07-20T16:31:21.445Z,31.90
2023-07-20T16:34:24.778Z,34.10
2023-07-20T16:40:55.984Z,30.30
2023-07-20T16:46:58.937Z,33.80
2023-07-20T16:50:01.451Z,37.00
2023-07-20T16:53:03.474Z,38.80
2023-07-20T16:56:05.656Z,35.70
2023-07-20T16:59:07.788Z,44.50
2023-07-20T17:02:09.833Z,44.70
2023-07-20T17:05:11.890Z,46.90
2023-07-20T17:08:14.011Z,49.80
2023-07-20T17:11:16.056Z,41.00
2023-07-20T17:17:29.187Z,50.00
2023-07-20T17:26:44.308Z,38.20
2023-07-20T17:29:46.658Z,50.70
2023-07-20T17:32:50.203Z,48.90
2023-07-20T17:35:52.313Z,37.80
2023-07-20T17:38:54.440Z,44.70
2023-07-20T17:41:59.007Z,37.40
2023-07-20T17:45:01.034Z,52.50
2023-07-20T17:48:05.759Z,52.10
2023-07-20T17:51:08.030Z,53.10
2023-07-20T17:54:10.046Z,54.10
2023-07-20T17:57:12.078Z,50.60
2023-07-20T18:03:19.458Z,52.30
2023-07-20T18:06:21.493Z,54.10
2023-07-20T18:09:23.563Z,54.80
2023-07-20T18:12:25.747Z,53.60
2023-07-20T18:15:27.829Z,50.80
2023-07-20T18:18:30.413Z,53.10
2023-07-20T18:21:32.632Z,54.30
2023-07-20T18:24:34.679Z,52.00
2023-07-20T18:27:36.766Z,51.50
2023-07-20T18:30:40.913Z,55.60
2023-07-20T18:33:42.857Z,53.80
2023-07-20T18:40:27.180Z,56.40
2023-07-20T18:43:30.222Z,54.40
2023-07-20T18:46:32.411Z,52.30
2023-07-20T18:49:36.511Z,49.60
2023-07-20T18:52:40.535Z,53.20
2023-07-20T18:55:42.680Z,52.80
2023-07-20T18:58:46.831Z,50.20
2023-07-20T19:01:49.063Z,53.10
2023-07-20T19:04:52.400Z,52.40
2023-07-20T19:07:56.501Z,50.00
2023-07-20T19:14:08.505Z,51.40
2023-07-20T19:17:15.908Z,50.10
2023-07-20T19:20:19.933Z,49.60
2023-07-20T19:23:24.460Z,51.00
2023-07-20T19:26:26.759Z,50.40
2023-07-20T19:29:28.970Z,52.50
2023-07-20T19:32:31.921Z,52.10
2023-07-20T19:35:36.706Z,49.40
2023-07-20T19:38:38.728Z,51.90
2023-07-20T19:41:40.833Z,51.30
2023-07-20T19:44:42.796Z,51.40
2023-07-20T19:47:44.849Z,54.00
2023-07-20T19:50:50.530Z,52.70
2023-07-20T19:56:57.629Z,52.40
2023-07-20T19:59:59.619Z,51.80
2023-07-20T20:06:06.716Z,52.20
2023-07-20T20:09:08.766Z,49.30
2023-07-20T20:12:14.064Z,48.60
2023-07-20T20:15:16.758Z,49.90
2023-07-20T20:18:18.899Z,49.00
2023-07-20T20:21:21.054Z,49.10
2023-07-20T20:24:23.103Z,50.00
2023-07-20T20:27:25.189Z,49.60
2023-07-20T20:30:27.403Z,49.70
2023-07-20T20:33:29.593Z,52.70
2023-07-20T20:36:31.659Z,50.30
2023-07-20T20:39:36.170Z,53.10
2023-07-20T20:42:39.863Z,50.80
2023-07-20T20:45:45.534Z,50.70
2023-07-20T20:48:54.924Z,51.10
2023-07-20T20:51:57.635Z,51.70
2023-07-20T20:55:01.345Z,51.60
2023-07-20T20:58:03.968Z,52.40
2023-07-20T21:01:06.297Z,52.40
2023-07-20T21:04:08.311Z,52.70
2023-07-20T21:07:10.436Z,52.90
2023-07-20T21:10:12.668Z,56.00
2023-07-20T21:13:14.821Z,55.00
2023-07-20T21:16:19.277Z,55.00
2023-07-20T21:19:25.114Z,55.50
2023-07-20T21:22:29.152Z,56.40
2023-07-20T21:25:31.174Z,53.40
2023-07-20T21:28:33.268Z,53.20
2023-07-20T21:31:35.675Z,53.00
2023-07-20T21:34:37.696Z,55.50
2023-07-20T21:37:39.822Z,53.00
2023-07-20T21:40:44.344Z,54.50
2023-07-20T21:43:46.410Z,53.30
2023-07-20T21:46:48.470Z,53.40
2023-07-20T21:49:50.537Z,54.30
2023-07-20T21:52:52.609Z,54.30
2023-07-20T21:55:54.718Z,52.50
2023-07-20T21:58:56.805Z,51.60
2023-07-20T22:02:00.382Z,56.70
2023-07-20T22:05:02.850Z,55.20
2023-07-20T22:08:05.116Z,56.20
2023-07-20T22:11:10.224Z,54.90
2023-07-20T22:14:14.555Z,56.10
2023-07-20T22:17:16.604Z,55.40
2023-07-20T22:20:18.660Z,55.40
2023-07-20T22:23:21.707Z,53.40
2023-07-20T22:26:26.385Z,54.00
2023-07-20T22:29:28.651Z,54.80
2023-07-20T22:32:30.700Z,55.70
2023-07-20T22:35:32.773Z,57.50
2023-07-20T22:38:34.748Z,57.60
2023-07-20T22:41:36.836Z,57.80
2023-07-20T22:44:38.813Z,58.30
2023-07-20T22:47:40.936Z,57.00
2023-07-20T22:50:43.016Z,58.40
2023-07-20T22:53:45.061Z,57.70
2023-07-20T22:56:47.103Z,57.70
2023-07-20T22:59:49.325Z,57.60
2023-07-20T23:02:51.527Z,57.80
2023-07-20T23:05:53.711Z,57.50
2023-07-20T23:08:55.760Z,58.40
2023-07-20T23:11:58.566Z,58.70
2023-07-20T23:15:00.595Z,58.70
2023-07-20T23:18:03.520Z,57.70
2023-07-20T23:21:05.585Z,58.10
2023-07-20T23:24:10.089Z,58.50
2023-07-20T23:27:12.171Z,58.30
2023-07-20T23:30:15.051Z,58.50
2023-07-20T23:33:21.037Z,59.50
2023-07-20T23:36:25.068Z,60.20
2023-07-20T23:39:27.357Z,59.10
2023-07-20T23:42:29.385Z,61.90
2023-07-20T23:45:33.962Z,59.10
2023-07-20T23:48:36.106Z,61.00
2023-07-20T23:51:38.068Z,60.40
2023-07-20T23:54:39.981Z,60.50
2023-07-20T23:57:44.066Z,61.20
